createdAt,value
2018-02-18T00:00:38.828Z,72.00
2018-02-18T00:03:06.423Z,71.80
2018-02-18T00:05:33.985Z,72.70
2018-02-18T00:08:01.583Z,71.10
2018-02-18T00:10:29.948Z,70.90
2018-02-18T00:12:58.310Z,70.60
2018-02-18T00:15:25.887Z,70.20
2018-02-18T00:17:53.498Z,69.50
2018-02-18T00:20:21.073Z,69.60
2018-02-18T00:22:48.661Z,70.30
2018-02-18T00:25:16.285Z,70.90
2018-02-18T00:27:43.917Z,71.30
2018-02-18T00:30:11.485Z,71.20
2018-02-18T00:32:39.089Z,71.00
2018-02-18T00:35:06.661Z,70.20
2018-02-18T00:37:34.248Z,69.80
2018-02-18T00:40:01.820Z,70.20
2018-02-18T00:42:29.398Z,70.40
2018-02-18T00:44:57.000Z,70.10
2018-02-18T00:47:24.577Z,70.20
2018-02-18T00:49:52.955Z,68.80
2018-02-18T00:52:21.306Z,69.60
2018-02-18T00:54:48.919Z,69.40
2018-02-18T00:57:16.520Z,69.70
2018-02-18T00:59:44.129Z,69.40
2018-02-18T01:02:11.706Z,69.60
2018-02-18T01:04:39.303Z,70.90
2018-02-18T01:07:06.904Z,70.50
2018-02-18T01:09:35.504Z,69.80
2018-02-18T01:12:03.074Z,70.80
2018-02-18T01:14:30.662Z,69.30
2018-02-18T01:16:58.400Z,71.20
2018-02-18T01:19:26.593Z,71.80
2018-02-18T01:21:54.169Z,70.50
2018-02-18T01:24:21.766Z,69.20
2018-02-18T01:26:49.350Z,69.70
2018-02-18T01:29:16.954Z,69.50
2018-02-18T01:31:44.535Z,70.40
2018-02-18T01:34:12.371Z,69.90
2018-02-18T01:36:39.947Z,71.10
2018-02-18T01:39:07.538Z,70.80
2018-02-18T01:41:35.818Z,70.20
2018-02-18T01:44:03.404Z,70.10
2018-02-18T01:46:30.978Z,70.00
2018-02-18T01:48:58.551Z,69.50
2018-02-18T01:51:26.155Z,70.00
2018-02-18T01:53:53.712Z,70.90
2018-02-18T01:56:21.305Z,69.30
2018-02-18T01:58:48.877Z,71.00
2018-02-18T02:01:16.469Z,70.60
2018-02-18T02:03:44.045Z,70.60
2018-02-18T02:06:11.636Z,70.10
2018-02-18T02:08:39.200Z,69.40
2018-02-18T02:11:06.792Z,69.80
2018-02-18T02:13:34.368Z,70.40
2018-02-18T02:16:01.964Z,70.30
2018-02-18T02:18:29.542Z,69.40
2018-02-18T02:20:57.125Z,69.60
2018-02-18T02:23:25.461Z,69.80
2018-02-18T02:25:53.058Z,69.70
2018-02-18T02:28:21.401Z,70.40
2018-02-18T02:30:49.007Z,70.40
2018-02-18T02:33:16.581Z,70.90
2018-02-18T02:35:44.178Z,71.30
2018-02-18T02:38:11.762Z,69.40
2018-02-18T02:40:40.135Z,69.30
2018-02-18T02:43:07.709Z,69.10
2018-02-18T02:45:35.309Z,68.50
2018-02-18T02:48:02.886Z,69.70
2018-02-18T02:50:30.498Z,70.30
2018-02-18T02:52:58.082Z,70.80
2018-02-18T02:55:25.688Z,69.50
2018-02-18T02:57:53.275Z,70.90
2018-02-18T03:00:21.652Z,70.40
2018-02-18T03:02:49.996Z,70.30
2018-02-18T03:05:17.581Z,70.30
2018-02-18T03:07:45.182Z,69.40
2018-02-18T03:10:12.758Z,70.40
2018-02-18T03:12:40.362Z,69.20
2018-02-18T03:15:07.969Z,69.20
2018-02-18T03:17:35.569Z,70.00
2018-02-18T03:20:03.145Z,69.60
2018-02-18T03:22:31.519Z,70.00
2018-02-18T03:24:59.096Z,70.00
2018-02-18T03:27:26.698Z,69.40
2018-02-18T03:29:54.277Z,71.40
2018-02-18T03:32:21.889Z,69.50
2018-02-18T03:34:49.487Z,70.30
2018-02-18T03:37:17.074Z,69.80
2018-02-18T03:39:44.660Z,69.30
2018-02-18T03:42:12.267Z,69.60
2018-02-18T03:44:39.854Z,70.00
2018-02-18T03:47:08.232Z,68.20
2018-02-18T03:49:37.416Z,68.30
2018-02-18T03:52:05.020Z,68.10
2018-02-18T03:54:32.634Z,68.20
2018-02-18T03:57:00.429Z,68.50
2018-02-18T03:59:28.010Z,70.10
2018-02-18T04:01:55.608Z,69.50
2018-02-18T04:04:23.180Z,68.30
2018-02-18T04:06:51.560Z,69.20
2018-02-18T04:09:19.907Z,69.00
2018-02-18T04:11:47.496Z,68.80
2018-02-18T04:14:15.083Z,69.40
2018-02-18T04:16:42.688Z,68.90
2018-02-18T04:19:10.264Z,68.30
2018-02-18T04:21:37.945Z,68.50
2018-02-18T04:24:05.522Z,69.50
2018-02-18T04:26:33.121Z,69.50
2018-02-18T04:29:00.705Z,69.00
2018-02-18T04:31:28.277Z,69.10
2018-02-18T04:33:55.877Z,70.00
2018-02-18T04:36:23.458Z,70.10
2018-02-18T04:38:51.058Z,69.00
2018-02-18T04:41:19.406Z,69.40
2018-02-18T04:43:47.000Z,69.30
2018-02-18T04:46:14.573Z,69.40
2018-02-18T04:48:42.170Z,69.40
2018-02-18T04:51:09.736Z,69.40
2018-02-18T04:53:37.335Z,69.40
2018-02-18T04:56:04.936Z,70.30
2018-02-18T04:58:32.542Z,68.80
2018-02-18T05:01:00.130Z,69.20
2018-02-18T05:03:27.742Z,70.10
2018-02-18T05:05:55.420Z,69.00
2018-02-18T05:08:23.782Z,69.40
2018-02-18T05:10:51.366Z,69.40
2018-02-18T05:13:18.958Z,70.40
2018-02-18T05:15:46.544Z,69.80
2018-02-18T05:18:14.178Z,69.00
2018-02-18T05:20:41.745Z,69.20
2018-02-18T05:23:09.332Z,69.60
2018-02-18T05:25:36.906Z,70.00
2018-02-18T05:28:04.510Z,69.40
2018-02-18T05:30:32.091Z,69.80
2018-02-18T05:32:59.865Z,69.70
2018-02-18T05:35:27.460Z,69.00
2018-02-18T05:37:55.796Z,68.00
2018-02-18T05:40:23.401Z,68.00
2018-02-18T05:42:50.960Z,70.00
2018-02-18T05:45:18.576Z,70.30
2018-02-18T05:47:46.152Z,68.90
2018-02-18T05:50:13.740Z,68.20
2018-02-18T05:52:42.077Z,69.20
2018-02-18T05:55:09.678Z,69.10
2018-02-18T05:57:37.262Z,68.70
2018-02-18T06:00:04.861Z,70.20
2018-02-18T06:02:32.450Z,69.80
2018-02-18T06:05:01.704Z,69.70
2018-02-18T06:07:29.282Z,71.60
2018-02-18T06:09:56.874Z,69.20
2018-02-18T06:12:24.440Z,70.00
2018-02-18T06:14:52.031Z,70.70
2018-02-18T06:17:19.596Z,68.60
2018-02-18T06:19:47.199Z,69.60
2018-02-18T06:22:14.778Z,69.70
2018-02-18T06:24:42.410Z,70.50
2018-02-18T06:27:09.987Z,71.10
2018-02-18T06:29:37.582Z,71.00
2018-02-18T06:32:05.151Z,70.80
2018-02-18T06:34:32.754Z,70.20
2018-02-18T06:37:01.120Z,71.20
2018-02-18T06:39:28.713Z,71.10
2018-02-18T06:41:56.320Z,69.70
2018-02-18T06:44:23.906Z,69.80
2018-02-18T06:46:51.483Z,71.00
2018-02-18T06:49:19.107Z,70.30
2018-02-18T06:51:46.685Z,70.70
2018-02-18T06:54:14.249Z,71.30
2018-02-18T06:56:42.609Z,69.40
2018-02-18T06:59:10.202Z,69.40
2018-02-18T07:01:37.801Z,70.00
2018-02-18T07:04:05.378Z,70.40
2018-02-18T07:06:32.977Z,71.40
2018-02-18T07:09:00.555Z,70.30
2018-02-18T07:11:28.159Z,70.30
2018-02-18T07:13:55.729Z,70.70
2018-02-18T07:16:23.435Z,69.60
2018-02-18T07:18:51.005Z,70.50
2018-02-18T07:21:18.605Z,71.10
2018-02-18T07:23:46.189Z,71.00
2018-02-18T07:26:14.548Z,72.40
2018-02-18T07:28:42.898Z,72.50
2018-02-18T07:31:10.491Z,72.20
2018-02-18T07:33:38.068Z,70.80
2018-02-18T07:36:05.665Z,70.80
2018-02-18T07:38:33.242Z,71.40
2018-02-18T07:41:00.839Z,70.80
2018-02-18T07:43:29.181Z,74.70
2018-02-18T07:45:56.774Z,74.70
2018-02-18T07:48:25.152Z,75.90
2018-02-18T07:50:52.741Z,75.90
2018-02-18T07:53:20.308Z,74.00
2018-02-18T07:55:47.898Z,73.90
2018-02-18T07:58:15.472Z,73.00
2018-02-18T08:00:43.839Z,71.10
2018-02-18T08:03:11.413Z,71.00
2018-02-18T08:05:39.006Z,70.60
2018-02-18T08:08:06.599Z,69.70
2018-02-18T08:10:34.185Z,68.40
2018-02-18T08:13:01.777Z,68.90
2018-02-18T08:15:29.350Z,65.60
2018-02-18T08:17:56.950Z,62.90
2018-02-18T08:20:24.521Z,62.20
2018-02-18T08:22:52.887Z,63.50
2018-02-18T08:25:20.466Z,63.40
2018-02-18T08:27:48.074Z,63.00
2018-02-18T08:30:15.646Z,63.10
2018-02-18T08:32:43.233Z,60.80
2018-02-18T08:35:10.815Z,62.80
2018-02-18T08:37:39.165Z,60.00
2018-02-18T08:40:06.738Z,60.10
2018-02-18T08:42:34.414Z,60.80
2018-02-18T08:45:01.987Z,59.20
2018-02-18T08:47:29.575Z,60.30
2018-02-18T08:49:57.147Z,57.10
2018-02-18T08:52:24.733Z,57.30
2018-02-18T08:54:53.074Z,57.00
2018-02-18T08:57:20.665Z,57.20
2018-02-18T08:59:48.229Z,55.00
2018-02-18T09:02:15.834Z,57.20
2018-02-18T09:04:43.406Z,54.90
2018-02-18T09:07:11.001Z,54.20
2018-02-18T09:09:38.572Z,56.10
2018-02-18T09:12:06.950Z,56.40
2018-02-18T09:14:34.534Z,56.50
2018-02-18T09:17:02.107Z,54.40
2018-02-18T09:19:29.708Z,54.70
2018-02-18T09:21:57.283Z,55.00
2018-02-18T09:24:25.645Z,53.50
2018-02-18T09:26:53.221Z,53.60
2018-02-18T09:29:20.826Z,49.30
2018-02-18T09:31:48.407Z,55.00
2018-02-18T09:34:16.007Z,52.20
2018-02-18T09:36:43.581Z,54.70
2018-02-18T09:39:11.186Z,55.50
2018-02-18T09:41:38.963Z,49.70
2018-02-18T09:44:06.580Z,52.40
2018-02-18T09:46:34.145Z,50.80
2018-02-18T09:49:01.744Z,51.70
2018-02-18T09:51:29.312Z,50.30
2018-02-18T09:53:56.917Z,48.10
2018-02-18T09:56:24.493Z,47.80
2018-02-18T09:58:52.100Z,49.60
2018-02-18T10:01:20.437Z,49.60
2018-02-18T10:03:48.038Z,49.50
2018-02-18T10:06:16.373Z,49.10
2018-02-18T10:08:43.973Z,48.60
2018-02-18T10:11:11.550Z,46.20
2018-02-18T10:13:39.122Z,47.80
2018-02-18T10:16:06.718Z,47.90
2018-02-18T10:18:34.302Z,43.10
2018-02-18T10:21:02.661Z,47.90
2018-02-18T10:23:30.232Z,47.60
2018-02-18T10:25:57.830Z,52.30
2018-02-18T10:28:25.683Z,49.10
2018-02-18T10:30:53.274Z,48.30
2018-02-18T10:33:20.841Z,47.70
2018-02-18T10:35:48.439Z,46.60
2018-02-18T10:38:16.787Z,50.60
2018-02-18T10:40:44.394Z,50.50
2018-02-18T10:43:11.977Z,49.50
2018-02-18T10:45:39.573Z,52.00
2018-02-18T10:48:07.154Z,51.10
2018-02-18T10:50:35.530Z,50.00
2018-02-18T10:53:03.870Z,53.60
2018-02-18T10:55:31.465Z,52.80
2018-02-18T10:57:59.797Z,53.80
2018-02-18T11:00:27.399Z,53.80
2018-02-18T11:02:54.964Z,52.20
2018-02-18T11:05:23.322Z,53.70
2018-02-18T11:07:50.903Z,53.70
2018-02-18T11:10:18.498Z,54.20
2018-02-18T11:12:46.104Z,54.20
2018-02-18T11:15:13.950Z,54.20
2018-02-18T11:17:41.609Z,55.20
2018-02-18T11:20:09.164Z,55.60
2018-02-18T11:22:36.739Z,55.20
2018-02-18T11:25:04.363Z,55.90
2018-02-18T11:27:31.962Z,54.80
2018-02-18T11:29:59.530Z,54.90
2018-02-18T11:32:27.121Z,54.80
2018-02-18T11:34:54.690Z,56.20
2018-02-18T11:37:22.282Z,56.30
2018-02-18T11:39:49.844Z,55.00
2018-02-18T11:42:17.438Z,55.70
2018-02-18T11:44:45.769Z,56.90
2018-02-18T11:47:13.371Z,56.90
2018-02-18T11:49:40.936Z,55.40
2018-02-18T11:52:09.293Z,57.30
2018-02-18T11:54:37.641Z,56.80
2018-02-18T11:57:05.229Z,56.70
2018-02-18T11:59:32.796Z,57.80
2018-02-18T12:02:00.382Z,56.90
2018-02-18T12:04:28.718Z,57.60
2018-02-18T12:06:56.310Z,57.60
2018-02-18T12:09:24.930Z,58.10
2018-02-18T12:11:52.570Z,58.20
2018-02-18T12:14:20.889Z,58.40
2018-02-18T12:16:48.490Z,58.40
2018-02-18T12:19:16.829Z,58.20
2018-02-18T12:21:44.425Z,58.10
2018-02-18T12:24:12.763Z,58.70
2018-02-18T12:26:40.360Z,58.60
2018-02-18T12:29:08.696Z,58.30
2018-02-18T12:31:36.290Z,58.30
2018-02-18T12:34:04.621Z,59.00
2018-02-18T12:36:32.219Z,58.90
2018-02-18T12:38:59.794Z,58.70
2018-02-18T12:41:28.178Z,59.30
2018-02-18T12:43:56.515Z,59.40
2018-02-18T12:46:24.090Z,59.40
2018-02-18T12:48:51.679Z,59.10
2018-02-18T12:51:19.241Z,59.20
2018-02-18T12:53:46.825Z,59.70
2018-02-18T12:56:14.393Z,59.20
2018-02-18T12:58:41.985Z,59.90
2018-02-18T13:01:09.562Z,59.50
2018-02-18T13:03:37.151Z,59.40
2018-02-18T13:06:04.743Z,59.90
2018-02-18T13:08:32.341Z,60.60
2018-02-18T13:11:00.681Z,60.50
2018-02-18T13:13:28.307Z,60.50
2018-02-18T13:15:55.880Z,60.60
2018-02-18T13:18:23.482Z,60.40
2018-02-18T13:20:51.827Z,60.30
2018-02-18T13:23:19.422Z,60.30
2018-02-18T13:25:47.771Z,60.40
2018-02-18T13:28:15.368Z,60.30
2018-02-18T13:30:42.946Z,60.20
2018-02-18T13:33:10.541Z,60.90
2018-02-18T13:35:38.111Z,60.90
2018-02-18T13:38:05.751Z,61.10
2018-02-18T13:40:34.237Z,61.20
2018-02-18T13:43:01.887Z,61.10
2018-02-18T13:45:29.453Z,61.20
2018-02-18T13:47:57.033Z,61.40
2018-02-18T13:50:24.644Z,61.50
2018-02-18T13:52:52.250Z,60.90
2018-02-18T13:55:19.861Z,61.00
2018-02-18T13:57:47.477Z,61.30
2018-02-18T14:00:15.054Z,61.80
2018-02-18T14:02:42.631Z,62.60
2018-02-18T14:05:10.232Z,62.40
2018-02-18T14:07:37.797Z,62.40
2018-02-18T14:10:05.389Z,62.40
2018-02-18T14:12:32.958Z,62.30
2018-02-18T14:15:00.580Z,61.80
2018-02-18T14:17:28.162Z,61.40
2018-02-18T14:19:55.753Z,61.90
2018-02-18T14:22:23.343Z,61.90
2018-02-18T14:24:50.929Z,61.90
2018-02-18T14:27:18.516Z,61.80
2018-02-18T14:29:46.110Z,62.30
2018-02-18T14:32:14.394Z,61.90
2018-02-18T14:34:41.991Z,62.50
2018-02-18T14:37:09.561Z,62.70
2018-02-18T14:39:37.149Z,62.50
2018-02-18T14:42:16.587Z,62.60
2018-02-18T14:45:08.657Z,62.70
2018-02-18T14:47:48.014Z,63.00
2018-02-18T14:50:27.317Z,63.60
2018-02-18T14:53:06.621Z,62.90
2018-02-18T14:55:46.129Z,62.70
2018-02-18T14:58:14.476Z,62.90
2018-02-18T15:00:42.080Z,62.80
2018-02-18T15:03:09.662Z,63.00
2018-02-18T15:05:37.305Z,63.00
2018-02-18T15:08:04.877Z,62.40
2018-02-18T15:10:32.488Z,62.60
2018-02-18T15:13:00.065Z,62.90
2018-02-18T15:15:27.662Z,62.80
2018-02-18T15:17:55.227Z,62.80
2018-02-18T15:20:22.826Z,62.70
2018-02-18T15:22:50.406Z,62.90
2018-02-18T15:25:18.006Z,62.90
2018-02-18T15:27:45.608Z,63.20
2018-02-18T15:30:13.209Z,62.70
2018-02-18T15:32:40.773Z,62.90
2018-02-18T15:35:08.357Z,62.90
2018-02-18T15:37:35.931Z,62.80
2018-02-18T15:40:03.560Z,63.00
2018-02-18T15:42:31.134Z,63.20
2018-02-18T15:44:58.733Z,63.90
2018-02-18T15:47:26.307Z,63.30
2018-02-18T15:49:54.666Z,64.20
2018-02-18T15:52:22.238Z,64.10
2018-02-18T15:54:49.849Z,64.80
2018-02-18T15:57:17.417Z,64.30
2018-02-18T15:59:45.021Z,64.60
2018-02-18T16:02:13.359Z,64.40
2018-02-18T16:04:40.921Z,64.40
2018-02-18T16:07:08.504Z,64.60
2018-02-18T16:09:36.833Z,65.00
2018-02-18T16:12:04.449Z,65.00
2018-02-18T16:14:32.024Z,64.40
2018-02-18T16:16:59.622Z,64.50
2018-02-18T16:19:27.189Z,64.60
2018-02-18T16:21:54.790Z,64.80
2018-02-18T16:24:23.153Z,65.10
2018-02-18T16:26:51.505Z,65.00
2018-02-18T16:29:19.511Z,64.90
2018-02-18T16:31:47.097Z,63.30
2018-02-18T16:34:14.664Z,62.80
2018-02-18T16:36:42.258Z,61.10
2018-02-18T16:39:09.829Z,61.10
2018-02-18T16:41:37.420Z,61.10
2018-02-18T16:44:04.997Z,61.60
2018-02-18T16:46:32.641Z,61.00
2018-02-18T16:49:00.411Z,59.70
2018-02-18T16:51:28.002Z,59.90
2018-02-18T16:53:55.565Z,60.40
2018-02-18T16:56:23.163Z,60.60
2018-02-18T16:58:51.499Z,60.50
2018-02-18T17:01:19.094Z,60.50
2018-02-18T17:03:46.674Z,60.00
2018-02-18T17:06:14.274Z,60.90
2018-02-18T17:08:41.840Z,60.70
2018-02-18T17:11:09.418Z,60.70
2018-02-18T17:13:37.799Z,60.60
2018-02-18T17:16:05.373Z,60.60
2018-02-18T17:18:32.957Z,61.70
2018-02-18T17:21:00.525Z,61.30
2018-02-18T17:23:28.447Z,61.90
2018-02-18T17:25:56.045Z,62.40
2018-02-18T17:28:23.633Z,62.70
2018-02-18T17:30:51.197Z,62.70
2018-02-18T17:33:18.855Z,62.40
2018-02-18T17:35:46.401Z,63.40
2018-02-18T17:38:13.994Z,62.80
2018-02-18T17:40:41.565Z,63.10
2018-02-18T17:43:09.158Z,63.80
2018-02-18T17:45:36.726Z,63.10
2018-02-18T17:48:04.323Z,63.30
2018-02-18T17:50:31.897Z,62.90
2018-02-18T17:52:59.500Z,63.30
2018-02-18T17:55:27.074Z,63.90
2018-02-18T17:57:54.661Z,64.30
2018-02-18T18:00:22.243Z,62.80
2018-02-18T18:02:50.611Z,63.90
2018-02-18T18:05:18.182Z,63.80
2018-02-18T18:07:45.769Z,63.90
2018-02-18T18:10:13.339Z,64.90
2018-02-18T18:12:40.929Z,64.60
2018-02-18T18:15:10.064Z,65.50
2018-02-18T18:17:37.609Z,64.70
2018-02-18T18:20:05.197Z,65.40
2018-02-18T18:22:32.762Z,64.70
2018-02-18T18:25:00.349Z,65.80
2018-02-18T18:27:27.926Z,64.90
2018-02-18T18:29:56.315Z,65.20
2018-02-18T18:32:23.890Z,65.10
2018-02-18T18:34:52.257Z,63.40
2018-02-18T18:37:19.821Z,63.20
2018-02-18T18:39:47.408Z,64.00
2018-02-18T18:42:14.984Z,63.10
2018-02-18T18:44:42.583Z,63.80
2018-02-18T18:47:10.152Z,63.30
2018-02-18T18:49:38.515Z,64.00
2018-02-18T18:52:06.089Z,63.90
2018-02-18T18:54:33.690Z,63.80
2018-02-18T18:57:01.263Z,63.50
2018-02-18T18:59:30.878Z,62.90
2018-02-18T19:01:58.983Z,63.00
2018-02-18T19:04:26.621Z,63.30
2018-02-18T19:06:54.189Z,62.90
2018-02-18T19:09:21.776Z,63.10
2018-02-18T19:11:50.145Z,63.70
2018-02-18T19:14:18.513Z,64.60
2018-02-18T19:16:46.299Z,64.60
2018-02-18T19:19:13.945Z,64.40
2018-02-18T19:21:42.290Z,63.10
2018-02-18T19:24:09.894Z,63.00
2018-02-18T19:26:38.234Z,64.60
2018-02-18T19:29:05.831Z,64.40
2018-02-18T19:31:34.175Z,64.40
2018-02-18T19:34:01.786Z,64.40
2018-02-18T19:36:29.354Z,64.70
2018-02-18T19:38:56.926Z,64.20
2018-02-18T19:41:24.511Z,65.00
2018-02-18T19:43:52.078Z,64.50
2018-02-18T19:46:19.670Z,64.10
2018-02-18T19:48:47.257Z,65.80
2018-02-18T19:51:14.847Z,64.70
2018-02-18T19:53:42.419Z,63.70
2018-02-18T19:56:10.018Z,64.50
2018-02-18T19:58:37.586Z,64.30
2018-02-18T20:01:05.178Z,64.60
2018-02-18T20:03:32.753Z,65.80
2018-02-18T20:06:00.338Z,65.30
2018-02-18T20:08:28.668Z,65.30
2018-02-18T20:10:56.258Z,65.30
2018-02-18T20:13:23.835Z,64.30
2018-02-18T20:15:52.201Z,63.90
2018-02-18T20:18:19.783Z,63.90
2018-02-18T20:20:47.378Z,64.00
2018-02-18T20:23:14.951Z,64.80
2018-02-18T20:25:43.187Z,64.40
2018-02-18T20:28:10.926Z,65.60
2018-02-18T20:30:38.549Z,65.80
2018-02-18T20:33:06.130Z,66.20
2018-02-18T20:35:33.717Z,65.80
2018-02-18T20:38:01.282Z,66.20
2018-02-18T20:40:28.878Z,65.60
2018-02-18T20:42:56.458Z,64.50
2018-02-18T20:45:24.060Z,67.00
2018-02-18T20:47:51.625Z,66.30
2018-02-18T20:50:19.242Z,66.30
2018-02-18T20:52:46.815Z,66.00
2018-02-18T20:55:14.409Z,66.50
2018-02-18T20:57:41.997Z,67.10
2018-02-18T21:00:09.562Z,66.40
2018-02-18T21:02:37.156Z,68.60
2018-02-18T21:05:04.734Z,68.20
2018-02-18T21:07:32.330Z,67.10
2018-02-18T21:09:59.909Z,66.10
2018-02-18T21:12:27.505Z,66.90
2018-02-18T21:14:55.076Z,66.80
2018-02-18T21:17:22.661Z,67.10
2018-02-18T21:19:50.230Z,68.90
2018-02-18T21:22:17.822Z,67.40
2018-02-18T21:24:45.382Z,67.40
2018-02-18T21:27:13.740Z,67.80
2018-02-18T21:29:41.311Z,67.70
2018-02-18T21:32:08.897Z,67.60
2018-02-18T21:34:36.461Z,66.50
2018-02-18T21:37:04.049Z,66.30
2018-02-18T21:39:31.616Z,67.40
2018-02-18T21:41:59.207Z,67.20
2018-02-18T21:44:26.776Z,66.50
2018-02-18T21:46:54.362Z,66.90
2018-02-18T21:49:22.130Z,67.20
2018-02-18T21:51:49.716Z,66.80
2018-02-18T21:54:17.281Z,67.50
2018-02-18T21:56:44.874Z,66.90
2018-02-18T21:59:13.214Z,67.40
2018-02-18T22:01:40.814Z,67.40
2018-02-18T22:04:09.165Z,67.70
2018-02-18T22:06:36.757Z,67.60
2018-02-18T22:09:04.325Z,68.30
2018-02-18T22:11:31.929Z,67.30
2018-02-18T22:13:59.499Z,68.40
2018-02-18T22:16:27.097Z,67.90
2018-02-18T22:18:54.681Z,69.10
2018-02-18T22:21:22.251Z,67.30
2018-02-18T22:23:49.845Z,67.50
2018-02-18T22:26:17.414Z,68.50
2018-02-18T22:28:45.773Z,67.30
2018-02-18T22:31:13.347Z,67.30
2018-02-18T22:33:40.937Z,68.80
2018-02-18T22:36:08.502Z,67.10
2018-02-18T22:38:36.097Z,67.10
2018-02-18T22:41:03.667Z,68.00
2018-02-18T22:43:31.266Z,67.70
2018-02-18T22:45:58.839Z,68.60
2018-02-18T22:48:26.425Z,68.80
2018-02-18T22:50:54.767Z,68.10
2018-02-18T22:53:22.362Z,68.00
2018-02-18T22:55:49.938Z,68.00
2018-02-18T22:58:17.662Z,68.60
2018-02-18T23:00:45.242Z,69.10
2018-02-18T23:03:12.839Z,68.90
2018-02-18T23:05:46.887Z,68.50
2018-02-18T23:08:14.472Z,68.40
2018-02-18T23:10:42.038Z,70.50
2018-02-18T23:13:10.534Z,69.10
2018-02-18T23:15:38.109Z,68.10
2018-02-18T23:18:06.468Z,69.30
2018-02-18T23:20:45.700Z,69.10
2018-02-18T23:23:13.294Z,69.40
2018-02-18T23:25:40.866Z,69.10
2018-02-18T23:28:08.458Z,69.50
2018-02-18T23:30:36.797Z,68.90
2018-02-18T23:33:04.380Z,68.80
2018-02-18T23:35:31.959Z,70.50
2018-02-18T23:37:59.675Z,68.60
2018-02-18T23:40:27.241Z,69.10
2018-02-18T23:42:54.809Z,69.60
2018-02-18T23:45:22.406Z,69.30
2018-02-18T23:47:49.983Z,68.00
2018-02-18T23:50:17.578Z,69.40
2018-02-18T23:52:45.146Z,68.90
2018-02-18T23:55:12.728Z,68.50
2018-02-18T23:57:40.292Z,68.10
